sensor_id;sensor_type;location;lat;lon;timestamp;P1;durP1;ratioP1;P2;durP2;ratioP2
43650;SDS011;29247;50.944;5.382;2022-12-29T00:02:25;1.17;;;0.80;;
43650;SDS011;29247;50.944;5.382;2022-12-29T00:04:51;1.92;;;0.70;;
43650;SDS011;29247;50.944;5.382;2022-12-29T00:07:17;0.73;;;0.63;;
43650;SDS011;29247;50.944;5.382;2022-12-29T00:09:43;0.73;;;0.70;;
43650;SDS011;29247;50.944;5.382;2022-12-29T00:12:09;0.65;;;0.65;;
43650;SDS011;29247;50.944;5.382;2022-12-29T00:14:37;0.70;;;0.60;;
43650;SDS011;29247;50.944;5.382;2022-12-29T00:17:21;0.60;;;0.60;;
43650;SDS011;29247;50.944;5.382;2022-12-29T00:19:48;2.75;;;0.65;;
43650;SDS011;29247;50.944;5.382;2022-12-29T00:22:32;0.63;;;0.63;;
43650;SDS011;29247;50.944;5.382;2022-12-29T00:25:16;1.10;;;0.60;;
43650;SDS011;29247;50.944;5.382;2022-12-29T00:28:04;1.10;;;0.55;;
43650;SDS011;29247;50.944;5.382;2022-12-29T00:30:50;0.88;;;0.75;;
43650;SDS011;29247;50.944;5.382;2022-12-29T00:33:34;0.60;;;0.60;;
43650;SDS011;29247;50.944;5.382;2022-12-29T00:36:26;1.08;;;0.60;;
43650;SDS011;29247;50.944;5.382;2022-12-29T00:39:04;1.20;;;0.50;;
43650;SDS011;29247;50.944;5.382;2022-12-29T00:41:51;2.20;;;0.63;;
43650;SDS011;29247;50.944;5.382;2022-12-29T00:44:38;1.20;;;0.60;;
43650;SDS011;29247;50.944;5.382;2022-12-29T00:47:06;1.95;;;0.73;;
43650;SDS011;29247;50.944;5.382;2022-12-29T00:49:36;2.92;;;0.50;;
43650;SDS011;29247;50.944;5.382;2022-12-29T00:52:06;1.83;;;0.70;;
43650;SDS011;29247;50.944;5.382;2022-12-29T00:54:33;0.70;;;0.65;;
43650;SDS011;29247;50.944;5.382;2022-12-29T00:57:04;1.15;;;0.82;;
43650;SDS011;29247;50.944;5.382;2022-12-29T00:59:38;0.57;;;0.50;;
43650;SDS011;29247;50.944;5.382;2022-12-29T01:02:05;0.52;;;0.52;;
43650;SDS011;29247;50.944;5.382;2022-12-29T01:04:34;0.60;;;0.50;;
43650;SDS011;29247;50.944;5.382;2022-12-29T01:07:02;0.52;;;0.52;;
43650;SDS011;29247;50.944;5.382;2022-12-29T01:09:30;0.57;;;0.57;;
43650;SDS011;29247;50.944;5.382;2022-12-29T01:12:15;0.90;;;0.52;;
43650;SDS011;29247;50.944;5.382;2022-12-29T01:15:03;2.17;;;1.38;;
43650;SDS011;29247;50.944;5.382;2022-12-29T01:17:30;1.30;;;0.60;;
43650;SDS011;29247;50.944;5.382;2022-12-29T01:19:56;0.57;;;0.57;;
43650;SDS011;29247;50.944;5.382;2022-12-29T01:22:21;0.73;;;0.55;;
43650;SDS011;29247;50.944;5.382;2022-12-29T01:24:51;2.35;;;0.50;;
43650;SDS011;29247;50.944;5.382;2022-12-29T01:27:22;1.48;;;0.60;;
43650;SDS011;29247;50.944;5.382;2022-12-29T01:29:47;2.33;;;1.25;;
43650;SDS011;29247;50.944;5.382;2022-12-29T01:32:13;3.03;;;0.80;;
43650;SDS011;29247;50.944;5.382;2022-12-29T01:34:39;0.80;;;0.80;;
43650;SDS011;29247;50.944;5.382;2022-12-29T01:37:07;1.35;;;0.60;;
43650;SDS011;29247;50.944;5.382;2022-12-29T01:39:35;1.52;;;0.77;;
43650;SDS011;29247;50.944;5.382;2022-12-29T01:42:05;1.55;;;0.63;;
43650;SDS011;29247;50.944;5.382;2022-12-29T01:44:47;0.80;;;0.50;;
43650;SDS011;29247;50.944;5.382;2022-12-29T01:47:28;0.90;;;0.55;;
43650;SDS011;29247;50.944;5.382;2022-12-29T01:49:59;2.58;;;0.80;;
43650;SDS011;29247;50.944;5.382;2022-12-29T01:52:31;0.90;;;0.63;;
43650;SDS011;29247;50.944;5.382;2022-12-29T01:54:58;2.90;;;0.85;;
43650;SDS011;29247;50.944;5.382;2022-12-29T01:57:27;1.85;;;0.65;;
43650;SDS011;29247;50.944;5.382;2022-12-29T02:00:01;3.55;;;0.82;;
43650;SDS011;29247;50.944;5.382;2022-12-29T02:02:35;1.23;;;0.70;;
43650;SDS011;29247;50.944;5.382;2022-12-29T02:05:05;1.80;;;0.70;;
43650;SDS011;29247;50.944;5.382;2022-12-29T02:07:35;1.08;;;0.95;;
43650;SDS011;29247;50.944;5.382;2022-12-29T02:10:05;0.80;;;0.60;;
43650;SDS011;29247;50.944;5.382;2022-12-29T02:12:33;0.80;;;0.60;;
43650;SDS011;29247;50.944;5.382;2022-12-29T02:14:59;7.90;;;1.00;;
43650;SDS011;29247;50.944;5.382;2022-12-29T02:31:37;0.57;;;0.50;;
43650;SDS011;29247;50.944;5.382;2022-12-29T02:37:01;1.92;;;0.50;;
43650;SDS011;29247;50.944;5.382;2022-12-29T02:39:42;0.60;;;0.52;;
43650;SDS011;29247;50.944;5.382;2022-12-29T02:42:29;0.70;;;0.50;;
43650;SDS011;29247;50.944;5.382;2022-12-29T02:47:42;0.50;;;0.50;;
43650;SDS011;29247;50.944;5.382;2022-12-29T02:50:21;0.65;;;0.43;;
43650;SDS011;29247;50.944;5.382;2022-12-29T02:52:50;0.60;;;0.60;;
43650;SDS011;29247;50.944;5.382;2022-12-29T02:55:25;4.13;;;0.60;;
43650;SDS011;29247;50.944;5.382;2022-12-29T03:04:01;0.52;;;0.35;;
43650;SDS011;29247;50.944;5.382;2022-12-29T03:12:07;0.50;;;0.50;;
43650;SDS011;29247;50.944;5.382;2022-12-29T03:15:03;0.95;;;0.45;;
43650;SDS011;29247;50.944;5.382;2022-12-29T03:18:07;0.50;;;0.50;;
43650;SDS011;29247;50.944;5.382;2022-12-29T03:20:45;0.75;;;0.50;;
43650;SDS011;29247;50.944;5.382;2022-12-29T03:23:19;1.45;;;0.50;;
43650;SDS011;29247;50.944;5.382;2022-12-29T03:25:47;0.50;;;0.50;;
43650;SDS011;29247;50.944;5.382;2022-12-29T03:28:21;0.75;;;0.60;;
43650;SDS011;29247;50.944;5.382;2022-12-29T03:30:54;0.50;;;0.50;;
43650;SDS011;29247;50.944;5.382;2022-12-29T03:35:54;2.20;;;0.70;;
43650;SDS011;29247;50.944;5.382;2022-12-29T03:40:59;0.70;;;0.40;;
43650;SDS011;29247;50.944;5.382;2022-12-29T03:45:58;0.80;;;0.80;;
43650;SDS011;29247;50.944;5.382;2022-12-29T03:48:26;1.50;;;0.50;;
43650;SDS011;29247;50.944;5.382;2022-12-29T03:50:52;1.58;;;0.60;;
43650;SDS011;29247;50.944;5.382;2022-12-29T03:53:17;2.85;;;0.60;;
43650;SDS011;29247;50.944;5.382;2022-12-29T03:55:48;2.08;;;0.40;;
43650;SDS011;29247;50.944;5.382;2022-12-29T03:58:14;0.60;;;0.50;;
43650;SDS011;29247;50.944;5.382;2022-12-29T04:00:40;1.38;;;0.52;;
43650;SDS011;29247;50.944;5.382;2022-12-29T04:03:07;4.30;;;0.50;;
43650;SDS011;29247;50.944;5.382;2022-12-29T04:05:36;2.47;;;0.60;;
43650;SDS011;29247;50.944;5.382;2022-12-29T04:08:04;2.22;;;0.60;;
43650;SDS011;29247;50.944;5.382;2022-12-29T04:10:32;1.95;;;0.60;;
43650;SDS011;29247;50.944;5.382;2022-12-29T04:12:58;2.10;;;0.57;;
43650;SDS011;29247;50.944;5.382;2022-12-29T04:15:24;4.13;;;0.52;;
43650;SDS011;29247;50.944;5.382;2022-12-29T04:17:52;0.90;;;0.55;;
43650;SDS011;29247;50.944;5.382;2022-12-29T04:20:23;3.30;;;0.43;;
43650;SDS011;29247;50.944;5.382;2022-12-29T04:23:08;1.83;;;0.50;;
43650;SDS011;29247;50.944;5.382;2022-12-29T04:25:34;2.00;;;0.55;;
43650;SDS011;29247;50.944;5.382;2022-12-29T04:28:02;0.60;;;0.60;;
43650;SDS011;29247;50.944;5.382;2022-12-29T04:30:28;1.52;;;0.40;;
43650;SDS011;29247;50.944;5.382;2022-12-29T04:32:56;2.53;;;0.47;;
43650;SDS011;29247;50.944;5.382;2022-12-29T04:35:21;0.95;;;0.40;;
43650;SDS011;29247;50.944;5.382;2022-12-29T04:37:49;1.48;;;0.82;;
43650;SDS011;29247;50.944;5.382;2022-12-29T04:40:17;1.58;;;0.40;;
43650;SDS011;29247;50.944;5.382;2022-12-29T04:42:46;2.60;;;0.50;;
43650;SDS011;29247;50.944;5.382;2022-12-29T04:45:11;1.10;;;0.43;;
43650;SDS011;29247;50.944;5.382;2022-12-29T04:47:39;2.42;;;0.40;;
43650;SDS011;29247;50.944;5.382;2022-12-29T04:50:05;0.60;;;0.50;;
43650;SDS011;29247;50.944;5.382;2022-12-29T04:52:31;2.50;;;0.50;;
43650;SDS011;29247;50.944;5.382;2022-12-29T04:54:57;2.30;;;0.55;;
43650;SDS011;29247;50.944;5.382;2022-12-29T04:57:23;0.40;;;0.40;;
43650;SDS011;29247;50.944;5.382;2022-12-29T04:59:53;2.20;;;0.43;;
43650;SDS011;29247;50.944;5.382;2022-12-29T05:02:21;0.50;;;0.50;;
43650;SDS011;29247;50.944;5.382;2022-12-29T05:04:47;6.85;;;0.65;;
43650;SDS011;29247;50.944;5.382;2022-12-29T05:07:13;0.40;;;0.40;;
43650;SDS011;29247;50.944;5.382;2022-12-29T05:09:39;1.20;;;0.47;;
43650;SDS011;29247;50.944;5.382;2022-12-29T05:12:05;2.88;;;0.47;;
43650;SDS011;29247;50.944;5.382;2022-12-29T05:14:31;1.50;;;0.50;;
43650;SDS011;29247;50.944;5.382;2022-12-29T05:16:57;2.40;;;0.50;;
43650;SDS011;29247;50.944;5.382;2022-12-29T05:19:22;3.17;;;0.50;;
43650;SDS011;29247;50.944;5.382;2022-12-29T05:21:48;0.50;;;0.50;;
43650;SDS011;29247;50.944;5.382;2022-12-29T05:24:14;1.60;;;0.47;;
43650;SDS011;29247;50.944;5.382;2022-12-29T05:26:41;2.03;;;0.70;;
43650;SDS011;29247;50.944;5.382;2022-12-29T05:29:11;1.38;;;0.55;;
43650;SDS011;29247;50.944;5.382;2022-12-29T05:31:37;2.97;;;0.52;;
43650;SDS011;29247;50.944;5.382;2022-12-29T05:34:02;2.70;;;0.52;;
43650;SDS011;29247;50.944;5.382;2022-12-29T05:36:28;0.80;;;0.52;;
43650;SDS011;29247;50.944;5.382;2022-12-29T05:38:56;2.00;;;0.70;;
43650;SDS011;29247;50.944;5.382;2022-12-29T05:41:22;3.65;;;0.60;;
43650;SDS011;29247;50.944;5.382;2022-12-29T05:43:48;2.90;;;0.80;;
43650;SDS011;29247;50.944;5.382;2022-12-29T05:46:16;4.28;;;0.68;;
43650;SDS011;29247;50.944;5.382;2022-12-29T05:48:44;2.67;;;0.63;;
43650;SDS011;29247;50.944;5.382;2022-12-29T05:51:12;1.88;;;0.50;;
43650;SDS011;29247;50.944;5.382;2022-12-29T05:53:38;1.50;;;0.70;;
43650;SDS011;29247;50.944;5.382;2022-12-29T05:56:07;2.42;;;0.63;;
43650;SDS011;29247;50.944;5.382;2022-12-29T05:58:32;1.00;;;0.60;;
43650;SDS011;29247;50.944;5.382;2022-12-29T06:01:00;6.13;;;0.80;;
43650;SDS011;29247;50.944;5.382;2022-12-29T06:03:26;1.02;;;0.60;;
43650;SDS011;29247;50.944;5.382;2022-12-29T06:05:52;3.92;;;0.77;;
43650;SDS011;29247;50.944;5.382;2022-12-29T06:08:20;2.30;;;0.55;;
43650;SDS011;29247;50.944;5.382;2022-12-29T06:10:45;1.67;;;0.60;;
43650;SDS011;29247;50.944;5.382;2022-12-29T06:13:11;4.13;;;0.90;;
43650;SDS011;29247;50.944;5.382;2022-12-29T06:15:40;0.98;;;0.68;;
43650;SDS011;29247;50.944;5.382;2022-12-29T06:18:06;2.53;;;0.50;;
43650;SDS011;29247;50.944;5.382;2022-12-29T06:20:31;3.45;;;0.52;;
43650;SDS011;29247;50.944;5.382;2022-12-29T06:22:59;2.50;;;0.63;;
43650;SDS011;29247;50.944;5.382;2022-12-29T06:25:25;3.97;;;0.75;;
43650;SDS011;29247;50.944;5.382;2022-12-29T06:27:51;3.65;;;0.77;;
43650;SDS011;29247;50.944;5.382;2022-12-29T06:30:16;5.60;;;1.13;;
43650;SDS011;29247;50.944;5.382;2022-12-29T06:32:42;3.75;;;0.75;;
43650;SDS011;29247;50.944;5.382;2022-12-29T06:35:09;4.90;;;0.75;;
43650;SDS011;29247;50.944;5.382;2022-12-29T06:37:35;1.98;;;0.75;;
43650;SDS011;29247;50.944;5.382;2022-12-29T06:40:01;3.92;;;1.25;;
43650;SDS011;29247;50.944;5.382;2022-12-29T06:42:27;1.92;;;0.57;;
43650;SDS011;29247;50.944;5.382;2022-12-29T06:44:52;2.67;;;0.60;;
43650;SDS011;29247;50.944;5.382;2022-12-29T06:47:19;5.60;;;0.80;;
43650;SDS011;29247;50.944;5.382;2022-12-29T06:49:44;2.63;;;0.68;;
43650;SDS011;29247;50.944;5.382;2022-12-29T06:52:13;2.97;;;0.60;;
43650;SDS011;29247;50.944;5.382;2022-12-29T06:54:39;3.65;;;0.88;;
43650;SDS011;29247;50.944;5.382;2022-12-29T06:57:06;3.17;;;0.50;;
43650;SDS011;29247;50.944;5.382;2022-12-29T06:59:32;4.30;;;0.68;;
43650;SDS011;29247;50.944;5.382;2022-12-29T07:02:02;1.75;;;0.68;;
43650;SDS011;29247;50.944;5.382;2022-12-29T07:04:30;3.70;;;0.70;;
43650;SDS011;29247;50.944;5.382;2022-12-29T07:06:56;6.63;;;0.80;;
43650;SDS011;29247;50.944;5.382;2022-12-29T07:09:21;4.13;;;0.80;;
43650;SDS011;29247;50.944;5.382;2022-12-29T07:11:48;5.38;;;0.85;;
43650;SDS011;29247;50.944;5.382;2022-12-29T07:14:13;4.00;;;0.98;;
43650;SDS011;29247;50.944;5.382;2022-12-29T07:16:39;4.68;;;0.90;;
43650;SDS011;29247;50.944;5.382;2022-12-29T07:19:08;9.68;;;0.90;;
43650;SDS011;29247;50.944;5.382;2022-12-29T07:21:34;6.57;;;0.98;;
43650;SDS011;29247;50.944;5.382;2022-12-29T07:24:02;3.25;;;0.70;;
43650;SDS011;29247;50.944;5.382;2022-12-29T07:26:28;2.65;;;0.82;;
43650;SDS011;29247;50.944;5.382;2022-12-29T07:28:53;4.55;;;0.70;;
43650;SDS011;29247;50.944;5.382;2022-12-29T07:31:20;3.55;;;0.70;;
43650;SDS011;29247;50.944;5.382;2022-12-29T07:33:48;4.38;;;0.90;;
43650;SDS011;29247;50.944;5.382;2022-12-29T07:36:14;6.75;;;0.88;;
43650;SDS011;29247;50.944;5.382;2022-12-29T07:38:41;5.32;;;0.80;;
43650;SDS011;29247;50.944;5.382;2022-12-29T07:41:07;6.60;;;0.73;;
43650;SDS011;29247;50.944;5.382;2022-12-29T07:43:35;4.30;;;0.80;;
43650;SDS011;29247;50.944;5.382;2022-12-29T07:46:01;6.00;;;0.80;;
43650;SDS011;29247;50.944;5.382;2022-12-29T07:48:27;2.65;;;0.68;;
43650;SDS011;29247;50.944;5.382;2022-12-29T07:50:52;4.90;;;0.60;;
43650;SDS011;29247;50.944;5.382;2022-12-29T07:53:21;2.85;;;0.70;;
43650;SDS011;29247;50.944;5.382;2022-12-29T07:55:47;6.18;;;0.98;;
43650;SDS011;29247;50.944;5.382;2022-12-29T07:58:17;1.85;;;0.60;;
43650;SDS011;29247;50.944;5.382;2022-12-29T08:00:43;4.95;;;1.02;;
43650;SDS011;29247;50.944;5.382;2022-12-29T08:03:09;4.50;;;0.90;;
43650;SDS011;29247;50.944;5.382;2022-12-29T08:05:37;3.83;;;0.90;;
43650;SDS011;29247;50.944;5.382;2022-12-29T08:08:05;5.55;;;0.90;;
43650;SDS011;29247;50.944;5.382;2022-12-29T08:10:32;9.50;;;1.77;;
43650;SDS011;29247;50.944;5.382;2022-12-29T08:12:57;4.32;;;2.05;;
43650;SDS011;29247;50.944;5.382;2022-12-29T08:15:23;5.05;;;0.80;;
43650;SDS011;29247;50.944;5.382;2022-12-29T08:17:48;4.05;;;0.68;;
43650;SDS011;29247;50.944;5.382;2022-12-29T08:20:14;2.92;;;0.73;;
43650;SDS011;29247;50.944;5.382;2022-12-29T08:22:40;5.13;;;0.80;;
43650;SDS011;29247;50.944;5.382;2022-12-29T08:25:11;3.50;;;0.88;;
43650;SDS011;29247;50.944;5.382;2022-12-29T08:27:37;6.65;;;1.33;;
43650;SDS011;29247;50.944;5.382;2022-12-29T08:30:05;3.97;;;0.80;;
43650;SDS011;29247;50.944;5.382;2022-12-29T08:32:33;5.75;;;1.10;;
43650;SDS011;29247;50.944;5.382;2022-12-29T08:34:59;4.15;;;0.70;;
43650;SDS011;29247;50.944;5.382;2022-12-29T08:37:26;3.10;;;0.90;;
43650;SDS011;29247;50.944;5.382;2022-12-29T08:39:54;8.85;;;1.15;;
43650;SDS011;29247;50.944;5.382;2022-12-29T08:42:23;6.63;;;1.23;;
43650;SDS011;29247;50.944;5.382;2022-12-29T08:44:56;2.58;;;0.80;;
43650;SDS011;29247;50.944;5.382;2022-12-29T08:47:22;3.10;;;0.98;;
43650;SDS011;29247;50.944;5.382;2022-12-29T08:49:52;5.20;;;0.90;;
43650;SDS011;29247;50.944;5.382;2022-12-29T08:52:18;7.95;;;1.02;;
43650;SDS011;29247;50.944;5.382;2022-12-29T08:54:44;4.10;;;0.95;;
43650;SDS011;29247;50.944;5.382;2022-12-29T08:57:13;2.58;;;0.80;;
43650;SDS011;29247;50.944;5.382;2022-12-29T08:59:38;4.57;;;0.73;;
43650;SDS011;29247;50.944;5.382;2022-12-29T09:02:10;6.30;;;1.48;;
43650;SDS011;29247;50.944;5.382;2022-12-29T09:04:41;6.82;;;0.90;;
43650;SDS011;29247;50.944;5.382;2022-12-29T09:07:07;6.82;;;0.80;;
43650;SDS011;29247;50.944;5.382;2022-12-29T09:09:40;5.60;;;0.90;;
43650;SDS011;29247;50.944;5.382;2022-12-29T09:12:05;5.43;;;0.90;;
43650;SDS011;29247;50.944;5.382;2022-12-29T09:14:31;6.75;;;0.90;;
43650;SDS011;29247;50.944;5.382;2022-12-29T09:16:57;2.92;;;0.75;;
43650;SDS011;29247;50.944;5.382;2022-12-29T09:19:42;6.22;;;0.90;;
43650;SDS011;29247;50.944;5.382;2022-12-29T09:22:10;3.80;;;1.00;;
43650;SDS011;29247;50.944;5.382;2022-12-29T09:24:36;5.30;;;0.77;;
43650;SDS011;29247;50.944;5.382;2022-12-29T09:27:02;3.45;;;0.90;;
43650;SDS011;29247;50.944;5.382;2022-12-29T09:29:31;7.20;;;0.90;;
43650;SDS011;29247;50.944;5.382;2022-12-29T09:31:59;7.10;;;0.90;;
43650;SDS011;29247;50.944;5.382;2022-12-29T09:34:27;4.88;;;1.60;;
43650;SDS011;29247;50.944;5.382;2022-12-29T09:36:55;6.72;;;1.20;;
43650;SDS011;29247;50.944;5.382;2022-12-29T09:39:23;3.55;;;0.85;;
43650;SDS011;29247;50.944;5.382;2022-12-29T09:41:57;4.30;;;0.95;;
43650;SDS011;29247;50.944;5.382;2022-12-29T09:47:11;9.43;;;0.88;;
43650;SDS011;29247;50.944;5.382;2022-12-29T09:52:21;8.32;;;1.38;;
43650;SDS011;29247;50.944;5.382;2022-12-29T09:57:36;7.45;;;1.60;;
43650;SDS011;29247;50.944;5.382;2022-12-29T10:00:11;3.78;;;0.80;;
43650;SDS011;29247;50.944;5.382;2022-12-29T10:03:05;4.18;;;0.88;;
43650;SDS011;29247;50.944;5.382;2022-12-29T10:10:59;6.65;;;1.20;;
43650;SDS011;29247;50.944;5.382;2022-12-29T10:16:19;10.05;;;0.95;;
43650;SDS011;29247;50.944;5.382;2022-12-29T10:18:57;5.93;;;0.80;;
43650;SDS011;29247;50.944;5.382;2022-12-29T10:24:21;5.60;;;0.93;;
43650;SDS011;29247;50.944;5.382;2022-12-29T10:26:51;4.82;;;1.10;;
43650;SDS011;29247;50.944;5.382;2022-12-29T10:29:23;6.93;;;1.05;;
43650;SDS011;29247;50.944;5.382;2022-12-29T10:31:57;5.68;;;1.20;;
43650;SDS011;29247;50.944;5.382;2022-12-29T10:36:53;5.72;;;1.25;;
43650;SDS011;29247;50.944;5.382;2022-12-29T10:39:28;3.78;;;0.95;;
43650;SDS011;29247;50.944;5.382;2022-12-29T10:42:21;6.15;;;1.05;;
43650;SDS011;29247;50.944;5.382;2022-12-29T10:44:55;6.68;;;0.98;;
43650;SDS011;29247;50.944;5.382;2022-12-29T10:47:26;4.72;;;0.80;;
43650;SDS011;29247;50.944;5.382;2022-12-29T10:49:58;3.30;;;1.05;;
43650;SDS011;29247;50.944;5.382;2022-12-29T10:52:26;7.85;;;1.20;;
43650;SDS011;29247;50.944;5.382;2022-12-29T10:55:02;7.40;;;1.20;;
43650;SDS011;29247;50.944;5.382;2022-12-29T10:57:39;7.32;;;0.98;;
43650;SDS011;29247;50.944;5.382;2022-12-29T11:00:17;4.85;;;1.02;;
43650;SDS011;29247;50.944;5.382;2022-12-29T11:08:26;3.38;;;0.95;;
43650;SDS011;29247;50.944;5.382;2022-12-29T11:10:58;6.57;;;0.80;;
43650;SDS011;29247;50.944;5.382;2022-12-29T11:13:27;5.90;;;1.02;;
43650;SDS011;29247;50.944;5.382;2022-12-29T11:15:57;5.28;;;0.98;;
43650;SDS011;29247;50.944;5.382;2022-12-29T11:18:59;1.58;;;0.73;;
43650;SDS011;29247;50.944;5.382;2022-12-29T11:21:27;10.00;;;1.33;;
43650;SDS011;29247;50.944;5.382;2022-12-29T11:24:00;4.10;;;1.00;;
43650;SDS011;29247;50.944;5.382;2022-12-29T11:26:31;8.68;;;1.02;;
43650;SDS011;29247;50.944;5.382;2022-12-29T11:31:42;5.60;;;0.90;;
43650;SDS011;29247;50.944;5.382;2022-12-29T11:34:16;3.28;;;0.80;;
43650;SDS011;29247;50.944;5.382;2022-12-29T11:36:46;5.45;;;1.23;;
43650;SDS011;29247;50.944;5.382;2022-12-29T11:42:12;6.50;;;1.00;;
43650;SDS011;29247;50.944;5.382;2022-12-29T11:44:47;5.45;;;0.88;;
43650;SDS011;29247;50.944;5.382;2022-12-29T11:47:49;6.00;;;0.90;;
43650;SDS011;29247;50.944;5.382;2022-12-29T11:50:21;6.75;;;0.80;;
43650;SDS011;29247;50.944;5.382;2022-12-29T11:52:57;5.30;;;0.80;;
43650;SDS011;29247;50.944;5.382;2022-12-29T11:55:30;1.90;;;0.70;;
43650;SDS011;29247;50.944;5.382;2022-12-29T11:58:00;5.72;;;1.25;;
43650;SDS011;29247;50.944;5.382;2022-12-29T12:00:34;5.70;;;0.90;;
43650;SDS011;29247;50.944;5.382;2022-12-29T12:05:52;8.13;;;1.02;;
43650;SDS011;29247;50.944;5.382;2022-12-29T12:08:36;4.82;;;0.75;;
43650;SDS011;29247;50.944;5.382;2022-12-29T12:16:35;5.40;;;1.02;;
43650;SDS011;29247;50.944;5.382;2022-12-29T12:24:49;3.80;;;1.10;;
43650;SDS011;29247;50.944;5.382;2022-12-29T12:27:24;4.25;;;1.05;;
43650;SDS011;29247;50.944;5.382;2022-12-29T12:32:48;4.63;;;1.35;;
43650;SDS011;29247;50.944;5.382;2022-12-29T12:46:17;5.20;;;0.80;;
43650;SDS011;29247;50.944;5.382;2022-12-29T12:54:37;8.60;;;0.98;;
43650;SDS011;29247;50.944;5.382;2022-12-29T13:00:21;5.32;;;0.70;;
43650;SDS011;29247;50.944;5.382;2022-12-29T13:05:31;3.78;;;0.60;;
43650;SDS011;29247;50.944;5.382;2022-12-29T13:08:22;8.48;;;0.90;;
43650;SDS011;29247;50.944;5.382;2022-12-29T13:11:05;5.60;;;0.98;;
43650;SDS011;29247;50.944;5.382;2022-12-29T13:16:20;2.58;;;0.70;;
43650;SDS011;29247;50.944;5.382;2022-12-29T13:24:32;6.70;;;1.17;;
43650;SDS011;29247;50.944;5.382;2022-12-29T13:32:33;4.95;;;1.00;;
43650;SDS011;29247;50.944;5.382;2022-12-29T13:38:04;5.65;;;0.98;;
43650;SDS011;29247;50.944;5.382;2022-12-29T13:40:33;4.43;;;0.90;;
43650;SDS011;29247;50.944;5.382;2022-12-29T13:43:09;7.07;;;1.00;;
43650;SDS011;29247;50.944;5.382;2022-12-29T13:45:36;5.60;;;0.95;;
43650;SDS011;29247;50.944;5.382;2022-12-29T13:48:15;8.18;;;1.00;;
43650;SDS011;29247;50.944;5.382;2022-12-29T13:50:48;5.47;;;1.05;;
43650;SDS011;29247;50.944;5.382;2022-12-29T14:03:44;6.93;;;1.00;;
43650;SDS011;29247;50.944;5.382;2022-12-29T14:08:52;7.57;;;1.00;;
43650;SDS011;29247;50.944;5.382;2022-12-29T14:11:21;6.88;;;1.00;;
43650;SDS011;29247;50.944;5.382;2022-12-29T14:13:50;6.03;;;1.17;;
43650;SDS011;29247;50.944;5.382;2022-12-29T14:16:32;8.63;;;0.93;;
43650;SDS011;29247;50.944;5.382;2022-12-29T14:19:08;12.13;;;1.00;;
43650;SDS011;29247;50.944;5.382;2022-12-29T14:22:03;5.43;;;1.00;;
43650;SDS011;29247;50.944;5.382;2022-12-29T14:29:50;4.78;;;0.60;;
43650;SDS011;29247;50.944;5.382;2022-12-29T14:34:55;7.40;;;1.10;;
43650;SDS011;29247;50.944;5.382;2022-12-29T14:37:33;8.15;;;1.05;;
43650;SDS011;29247;50.944;5.382;2022-12-29T14:40:14;8.75;;;1.35;;
43650;SDS011;29247;50.944;5.382;2022-12-29T14:42:48;8.18;;;1.40;;
43650;SDS011;29247;50.944;5.382;2022-12-29T14:47:45;5.80;;;1.00;;
43650;SDS011;29247;50.944;5.382;2022-12-29T14:52:54;7.40;;;1.00;;
43650;SDS011;29247;50.944;5.382;2022-12-29T14:58:27;7.97;;;1.00;;
43650;SDS011;29247;50.944;5.382;2022-12-29T15:04:03;4.07;;;0.80;;
43650;SDS011;29247;50.944;5.382;2022-12-29T15:06:39;4.00;;;1.17;;
43650;SDS011;29247;50.944;5.382;2022-12-29T15:09:12;6.78;;;1.00;;
43650;SDS011;29247;50.944;5.382;2022-12-29T15:11:48;6.70;;;1.10;;
43650;SDS011;29247;50.944;5.382;2022-12-29T15:14:52;10.88;;;1.58;;
43650;SDS011;29247;50.944;5.382;2022-12-29T15:19:52;8.38;;;1.55;;
43650;SDS011;29247;50.944;5.382;2022-12-29T15:22:21;6.20;;;1.10;;
43650;SDS011;29247;50.944;5.382;2022-12-29T15:24:49;6.95;;;1.90;;
43650;SDS011;29247;50.944;5.382;2022-12-29T15:27:23;9.02;;;1.27;;
43650;SDS011;29247;50.944;5.382;2022-12-29T15:29:57;7.03;;;1.00;;
43650;SDS011;29247;50.944;5.382;2022-12-29T15:32:38;8.85;;;1.40;;
43650;SDS011;29247;50.944;5.382;2022-12-29T15:35:27;5.85;;;1.20;;
43650;SDS011;29247;50.944;5.382;2022-12-29T15:37:58;3.38;;;1.05;;
43650;SDS011;29247;50.944;5.382;2022-12-29T15:40:28;6.55;;;1.20;;
43650;SDS011;29247;50.944;5.382;2022-12-29T15:45:33;10.32;;;2.08;;
43650;SDS011;29247;50.944;5.382;2022-12-29T15:48:00;4.43;;;0.98;;
43650;SDS011;29247;50.944;5.382;2022-12-29T15:50:30;6.32;;;0.80;;
43650;SDS011;29247;50.944;5.382;2022-12-29T15:52:58;12.68;;;1.23;;
43650;SDS011;29247;50.944;5.382;2022-12-29T15:57:59;8.32;;;1.10;;
43650;SDS011;29247;50.944;5.382;2022-12-29T16:00:30;7.15;;;0.95;;
43650;SDS011;29247;50.944;5.382;2022-12-29T16:02:59;5.00;;;0.98;;
43650;SDS011;29247;50.944;5.382;2022-12-29T16:05:31;4.18;;;1.40;;
43650;SDS011;29247;50.944;5.382;2022-12-29T16:08:15;5.18;;;0.98;;
43650;SDS011;29247;50.944;5.382;2022-12-29T16:10:51;5.43;;;0.98;;
43650;SDS011;29247;50.944;5.382;2022-12-29T16:16:19;5.32;;;1.13;;
43650;SDS011;29247;50.944;5.382;2022-12-29T16:18:49;8.65;;;1.15;;
43650;SDS011;29247;50.944;5.382;2022-12-29T16:21:19;4.85;;;1.52;;
43650;SDS011;29247;50.944;5.382;2022-12-29T16:23:52;9.52;;;1.40;;
43650;SDS011;29247;50.944;5.382;2022-12-29T16:26:22;7.72;;;1.35;;
43650;SDS011;29247;50.944;5.382;2022-12-29T16:28:54;6.97;;;1.13;;
43650;SDS011;29247;50.944;5.382;2022-12-29T16:31:23;4.45;;;1.20;;
43650;SDS011;29247;50.944;5.382;2022-12-29T16:33:57;7.38;;;1.55;;
43650;SDS011;29247;50.944;5.382;2022-12-29T16:36:28;6.32;;;1.05;;
43650;SDS011;29247;50.944;5.382;2022-12-29T16:41:36;6.28;;;1.05;;
43650;SDS011;29247;50.944;5.382;2022-12-29T16:44:19;5.10;;;1.10;;
43650;SDS011;29247;50.944;5.382;2022-12-29T16:46:57;5.30;;;0.80;;
43650;SDS011;29247;50.944;5.382;2022-12-29T16:49:35;5.20;;;0.90;;
43650;SDS011;29247;50.944;5.382;2022-12-29T16:52:13;8.68;;;1.42;;
43650;SDS011;29247;50.944;5.382;2022-12-29T16:54:54;6.63;;;0.90;;
43650;SDS011;29247;50.944;5.382;2022-12-29T16:57:41;8.65;;;1.13;;
43650;SDS011;29247;50.944;5.382;2022-12-29T17:00:29;7.72;;;1.30;;
43650;SDS011;29247;50.944;5.382;2022-12-29T17:03:01;3.33;;;0.88;;
43650;SDS011;29247;50.944;5.382;2022-12-29T17:05:28;4.43;;;1.15;;
43650;SDS011;29247;50.944;5.382;2022-12-29T17:07:54;3.88;;;0.80;;
43650;SDS011;29247;50.944;5.382;2022-12-29T17:10:25;9.90;;;1.50;;
43650;SDS011;29247;50.944;5.382;2022-12-29T17:13:11;4.47;;;1.02;;
43650;SDS011;29247;50.944;5.382;2022-12-29T17:15:39;7.63;;;1.25;;
43650;SDS011;29247;50.944;5.382;2022-12-29T17:18:07;8.48;;;1.13;;
43650;SDS011;29247;50.944;5.382;2022-12-29T17:20:37;9.02;;;1.50;;
43650;SDS011;29247;50.944;5.382;2022-12-29T17:23:11;8.25;;;1.05;;
43650;SDS011;29247;50.944;5.382;2022-12-29T17:25:39;6.97;;;1.20;;
43650;SDS011;29247;50.944;5.382;2022-12-29T17:28:17;5.03;;;1.30;;
43650;SDS011;29247;50.944;5.382;2022-12-29T17:30:47;3.55;;;1.10;;
43650;SDS011;29247;50.944;5.382;2022-12-29T17:33:16;7.18;;;1.38;;
43650;SDS011;29247;50.944;5.382;2022-12-29T17:35:47;7.70;;;1.23;;
43650;SDS011;29247;50.944;5.382;2022-12-29T17:38:21;10.00;;;1.05;;
43650;SDS011;29247;50.944;5.382;2022-12-29T17:40:52;10.88;;;1.00;;
43650;SDS011;29247;50.944;5.382;2022-12-29T17:43:18;9.75;;;1.30;;
43650;SDS011;29247;50.944;5.382;2022-12-29T17:45:45;5.03;;;1.00;;
43650;SDS011;29247;50.944;5.382;2022-12-29T17:48:16;4.20;;;1.10;;
43650;SDS011;29247;50.944;5.382;2022-12-29T17:50:45;8.07;;;1.02;;
43650;SDS011;29247;50.944;5.382;2022-12-29T17:53:19;4.32;;;1.00;;
43650;SDS011;29247;50.944;5.382;2022-12-29T17:55:51;7.05;;;1.90;;
43650;SDS011;29247;50.944;5.382;2022-12-29T17:58:19;5.57;;;1.27;;
43650;SDS011;29247;50.944;5.382;2022-12-29T18:00:46;6.97;;;0.90;;
43650;SDS011;29247;50.944;5.382;2022-12-29T18:03:14;2.45;;;1.20;;
43650;SDS011;29247;50.944;5.382;2022-12-29T18:05:45;5.88;;;1.23;;